createdAt,value
2023-05-24T00:00:34.668Z,14.55
2023-05-24T00:01:33.709Z,14.53
2023-05-24T00:02:33.735Z,14.50
2023-05-24T00:03:33.709Z,14.47
2023-05-24T00:04:33.697Z,14.45
2023-05-24T00:05:33.611Z,14.43
2023-05-24T00:06:34.582Z,14.42
2023-05-24T00:07:33.571Z,14.42
2023-05-24T00:08:33.581Z,14.42
2023-05-24T00:09:33.600Z,14.43
2023-05-24T00:10:33.543Z,14.44
2023-05-24T00:11:33.598Z,14.46
2023-05-24T00:12:34.477Z,14.48
2023-05-24T00:13:33.496Z,14.50
2023-05-24T00:14:33.476Z,14.52
2023-05-24T00:15:33.529Z,14.55
2023-05-24T00:16:33.530Z,14.57
2023-05-24T00:17:33.498Z,14.59
2023-05-24T00:18:34.480Z,14.62
2023-05-24T00:19:33.449Z,14.64
2023-05-24T00:20:33.488Z,14.66
2023-05-24T00:21:33.435Z,14.69
2023-05-24T00:22:33.494Z,14.71
2023-05-24T00:23:33.433Z,14.74
2023-05-24T00:24:34.304Z,14.77
2023-05-24T00:25:33.396Z,14.79
2023-05-24T00:26:33.367Z,14.82
2023-05-24T00:27:34.029Z,14.85
2023-05-24T00:28:33.292Z,14.88
2023-05-24T00:29:33.308Z,14.91
2023-05-24T00:30:34.250Z,14.93
2023-05-24T00:31:33.404Z,14.96
2023-05-24T00:32:33.278Z,14.98
2023-05-24T00:33:33.236Z,15.00
2023-05-24T00:34:33.358Z,15.01
2023-05-24T00:35:33.222Z,15.02
2023-05-24T00:36:34.165Z,15.01
2023-05-24T00:37:33.190Z,15.01
2023-05-24T00:38:33.208Z,15.00
2023-05-24T00:39:33.193Z,15.00
2023-05-24T00:40:33.200Z,15.01
2023-05-24T00:41:33.117Z,15.02
2023-05-24T00:42:34.078Z,15.03
2023-05-24T00:43:33.121Z,15.04
2023-05-24T00:44:33.129Z,15.05
2023-05-24T00:45:33.858Z,15.05
2023-05-24T00:46:33.281Z,15.05
2023-05-24T00:47:34.063Z,15.05
2023-05-24T00:48:33.092Z,15.05
2023-05-24T00:49:33.062Z,15.04
2023-05-24T00:50:33.113Z,15.03
2023-05-24T00:51:33.088Z,15.02
2023-05-24T00:52:33.967Z,15.01
2023-05-24T00:53:32.963Z,14.99
2023-05-24T00:54:32.953Z,14.98
2023-05-24T00:55:32.975Z,14.98
2023-05-24T00:56:32.934Z,14.97
2023-05-24T00:57:32.917Z,14.97
2023-05-24T00:58:33.916Z,14.97
2023-05-24T00:59:32.971Z,14.96
2023-05-24T01:00:32.903Z,14.94
2023-05-24T01:01:32.986Z,14.91
2023-05-24T01:02:32.879Z,14.89
2023-05-24T01:03:34.047Z,14.86
2023-05-24T01:04:32.823Z,14.83
2023-05-24T01:05:32.831Z,14.81
2023-05-24T01:06:32.868Z,14.78
2023-05-24T01:07:32.782Z,14.76
2023-05-24T01:08:32.798Z,14.73
2023-05-24T01:09:33.778Z,14.71
2023-05-24T01:10:32.759Z,14.69
2023-05-24T01:11:32.782Z,14.67
2023-05-24T01:12:32.788Z,14.65
2023-05-24T01:13:32.737Z,14.63
2023-05-24T01:14:33.678Z,14.62
2023-05-24T01:15:32.725Z,14.60
2023-05-24T01:16:32.772Z,14.58
2023-05-24T01:17:32.732Z,14.57
2023-05-24T01:18:32.658Z,14.56
2023-05-24T01:19:32.651Z,14.55
2023-05-24T01:20:33.603Z,14.55
2023-05-24T01:21:32.661Z,14.56
2023-05-24T01:22:32.614Z,14.56
2023-05-24T01:23:32.596Z,14.56
2023-05-24T01:24:32.556Z,14.55
2023-05-24T01:25:33.563Z,14.55
2023-05-24T01:26:32.580Z,14.54
2023-05-24T01:27:32.543Z,14.54
2023-05-24T01:28:32.556Z,14.54
2023-05-24T01:29:32.505Z,14.53
2023-05-24T01:30:33.487Z,14.53
2023-05-24T01:31:32.515Z,14.53
2023-05-24T01:32:32.550Z,14.53
2023-05-24T01:33:32.504Z,14.53
2023-05-24T01:34:32.437Z,14.52
2023-05-24T01:35:33.376Z,14.51
2023-05-24T01:36:32.428Z,14.50
2023-05-24T01:37:32.439Z,14.49
2023-05-24T01:38:32.443Z,14.48
2023-05-24T01:39:32.377Z,14.47
2023-05-24T01:40:33.316Z,14.46
2023-05-24T01:41:32.368Z,14.46
2023-05-24T01:42:32.336Z,14.45
2023-05-24T01:43:32.428Z,14.45
2023-05-24T01:44:32.364Z,14.44
2023-05-24T01:45:32.342Z,14.44
2023-05-24T01:46:33.265Z,14.43
2023-05-24T01:47:32.349Z,14.43
2023-05-24T01:48:32.261Z,14.43
2023-05-24T01:49:32.263Z,14.43
2023-05-24T01:50:32.239Z,14.43
2023-05-24T01:51:33.156Z,14.42
2023-05-24T01:52:32.291Z,14.42
2023-05-24T01:53:32.212Z,14.42
2023-05-24T01:54:32.216Z,14.42
2023-05-24T01:55:32.228Z,14.42
2023-05-24T01:56:33.111Z,14.42
2023-05-24T01:57:32.175Z,14.42
2023-05-24T01:58:32.131Z,14.42
2023-05-24T01:59:32.130Z,14.42
2023-05-24T02:00:32.106Z,14.42
2023-05-24T02:01:33.096Z,14.43
2023-05-24T02:02:32.247Z,14.44
2023-05-24T02:03:32.126Z,14.45
2023-05-24T02:04:32.206Z,14.46
2023-05-24T02:05:32.088Z,14.47
2023-05-24T02:06:32.986Z,14.48
2023-05-24T02:07:32.046Z,14.47
2023-05-24T02:08:32.060Z,14.47
2023-05-24T02:09:32.001Z,14.47
2023-05-24T02:10:32.034Z,14.47
2023-05-24T02:11:31.967Z,14.47
2023-05-24T02:12:32.921Z,14.47
2023-05-24T02:13:31.966Z,14.47
2023-05-24T02:14:31.929Z,14.48
2023-05-24T02:15:31.940Z,14.49
2023-05-24T02:16:32.050Z,14.50
2023-05-24T02:17:32.897Z,14.51
2023-05-24T02:18:31.883Z,14.51
2023-05-24T02:19:31.862Z,14.52
2023-05-24T02:20:32.026Z,14.52
2023-05-24T02:21:31.865Z,14.53
2023-05-24T02:22:31.851Z,14.54
2023-05-24T02:23:32.737Z,14.54
2023-05-24T02:24:31.813Z,14.54
2023-05-24T02:25:31.793Z,14.54
2023-05-24T02:26:31.787Z,14.53
2023-05-24T02:27:31.784Z,14.53
2023-05-24T02:28:31.756Z,14.52
2023-05-24T02:29:32.657Z,14.52
2023-05-24T02:30:31.740Z,14.51
2023-05-24T02:31:31.885Z,14.51
2023-05-24T02:32:31.796Z,14.51
2023-05-24T02:33:31.688Z,14.50
2023-05-24T02:34:31.692Z,14.49
2023-05-24T02:35:32.643Z,14.47
2023-05-24T02:36:31.666Z,14.45
2023-05-24T02:37:31.638Z,14.43
2023-05-24T02:38:31.604Z,14.42
2023-05-24T02:39:31.605Z,14.41
2023-05-24T02:40:31.628Z,14.40
2023-05-24T02:41:32.525Z,14.39
2023-05-24T02:42:31.603Z,14.39
2023-05-24T02:43:31.546Z,14.40
2023-05-24T02:44:31.546Z,14.41
2023-05-24T02:45:31.537Z,14.41
2023-05-24T02:46:32.566Z,14.43
2023-05-24T02:47:31.548Z,14.44
2023-05-24T02:49:16.751Z,15.52
2023-05-24T02:50:15.386Z,15.04
2023-05-24T02:51:15.383Z,14.70
2023-05-24T02:52:16.337Z,14.47
2023-05-24T02:53:15.312Z,14.32
2023-05-24T02:54:15.301Z,14.22
2023-05-24T02:55:15.290Z,14.16
2023-05-24T02:56:15.362Z,14.11
2023-05-24T02:57:16.271Z,14.08
2023-05-24T02:58:15.301Z,14.06
2023-05-24T02:59:15.228Z,14.05
2023-05-24T03:00:15.257Z,14.05
2023-05-24T03:01:15.287Z,14.04
2023-05-24T03:02:15.227Z,14.05
2023-05-24T03:03:16.280Z,14.07
2023-05-24T03:04:15.213Z,14.09
2023-05-24T03:05:15.171Z,14.12
2023-05-24T03:06:15.132Z,14.15
2023-05-24T03:07:15.173Z,14.19
2023-05-24T03:08:15.136Z,14.22
2023-05-24T03:09:16.060Z,14.26
2023-05-24T03:10:15.949Z,14.30
2023-05-24T03:11:15.061Z,14.34
2023-05-24T03:12:15.113Z,14.38
2023-05-24T03:13:15.170Z,14.41
2023-05-24T03:14:15.030Z,14.44
2023-05-24T03:15:15.948Z,14.47
2023-05-24T03:16:15.074Z,14.49
2023-05-24T03:17:15.132Z,14.50
2023-05-24T03:18:14.997Z,14.51
2023-05-24T03:19:14.975Z,14.51
2023-05-24T03:20:14.987Z,14.51
2023-05-24T03:21:15.929Z,14.52
2023-05-24T03:22:14.953Z,14.53
2023-05-24T03:23:14.948Z,14.53
2023-05-24T03:24:15.001Z,14.54
2023-05-24T03:25:14.900Z,14.55
2023-05-24T03:26:15.860Z,14.55
2023-05-24T03:27:14.887Z,14.55
2023-05-24T03:28:14.871Z,14.55
2023-05-24T03:29:14.847Z,14.56
2023-05-24T03:30:14.842Z,14.56
2023-05-24T03:31:15.813Z,14.57
2023-05-24T03:32:14.883Z,14.57
2023-05-24T03:33:14.783Z,14.57
2023-05-24T03:34:14.793Z,14.56
2023-05-24T03:35:14.779Z,14.55
2023-05-24T03:36:14.753Z,14.54
2023-05-24T03:37:15.730Z,14.54
2023-05-24T03:38:14.779Z,14.54
2023-05-24T03:39:14.717Z,14.54
2023-05-24T03:40:14.703Z,14.53
2023-05-24T03:41:14.714Z,14.53
2023-05-24T03:42:15.602Z,14.52
2023-05-24T03:43:14.705Z,14.51
2023-05-24T03:44:14.653Z,14.51
2023-05-24T03:45:19.362Z,14.51
2023-05-24T03:46:16.203Z,14.53
2023-05-24T03:47:15.559Z,14.55
2023-05-24T03:48:14.682Z,14.58
2023-05-24T03:49:14.595Z,14.61
2023-05-24T03:50:14.622Z,14.63
2023-05-24T03:51:14.546Z,14.65
2023-05-24T03:52:15.507Z,14.66
2023-05-24T03:53:14.513Z,14.67
2023-05-24T03:54:14.532Z,14.67
2023-05-24T03:55:14.494Z,14.68
2023-05-24T03:56:14.516Z,14.69
2023-05-24T03:57:14.481Z,14.70
2023-05-24T03:58:15.577Z,14.71
2023-05-24T03:59:14.481Z,14.73
2023-05-24T04:00:14.496Z,14.74
2023-05-24T04:01:25.447Z,14.74
2023-05-24T04:02:15.967Z,14.73
2023-05-24T04:03:14.427Z,14.71
2023-05-24T04:04:15.398Z,14.69
2023-05-24T04:05:14.432Z,14.66
2023-05-24T04:06:16.899Z,14.64
2023-05-24T04:07:14.367Z,14.61
2023-05-24T04:08:14.331Z,14.58
2023-05-24T04:09:14.385Z,14.54
2023-05-24T04:10:15.267Z,14.51
2023-05-24T04:11:14.286Z,14.48
2023-05-24T04:12:14.286Z,14.46
2023-05-24T04:13:14.261Z,14.45
2023-05-24T04:14:14.238Z,14.44
2023-05-24T04:15:14.287Z,14.43
2023-05-24T04:16:15.245Z,14.42
2023-05-24T04:17:14.311Z,14.40
2023-05-24T04:18:14.238Z,14.37
2023-05-24T04:19:14.197Z,14.34
2023-05-24T04:20:14.242Z,14.31
2023-05-24T04:21:14.186Z,14.29
2023-05-24T04:22:15.094Z,14.27
2023-05-24T04:23:14.130Z,14.26
2023-05-24T04:24:14.110Z,14.25
2023-05-24T04:25:14.155Z,14.25
2023-05-24T04:26:14.104Z,14.24
2023-05-24T04:27:14.103Z,14.23
2023-05-24T04:28:15.009Z,14.22
2023-05-24T04:29:14.107Z,14.21
2023-05-24T04:30:14.064Z,14.20
2023-05-24T04:31:14.040Z,14.19
2023-05-24T04:32:14.062Z,14.18
2023-05-24T04:33:14.089Z,14.17
2023-05-24T04:34:14.947Z,14.17
2023-05-24T04:35:13.993Z,14.16
2023-05-24T04:36:13.992Z,14.16
2023-05-24T04:37:13.992Z,14.17
2023-05-24T04:38:13.965Z,14.17
2023-05-24T04:39:14.858Z,14.18
2023-05-24T04:40:13.935Z,14.18
2023-05-24T04:41:13.914Z,14.18
2023-05-24T04:42:13.904Z,14.17
2023-05-24T04:43:13.886Z,14.16
2023-05-24T04:44:14.825Z,14.16
2023-05-24T04:45:13.853Z,14.16
2023-05-24T04:46:13.894Z,14.17
2023-05-24T04:47:13.972Z,14.18
2023-05-24T04:48:13.932Z,14.20
2023-05-24T04:49:13.772Z,14.23
2023-05-24T04:50:14.736Z,14.25
2023-05-24T04:51:13.853Z,14.27
2023-05-24T04:52:13.762Z,14.29
2023-05-24T04:53:13.734Z,14.31
2023-05-24T04:54:13.773Z,14.33
2023-05-24T04:55:13.753Z,14.35
2023-05-24T04:56:14.678Z,14.36
2023-05-24T04:57:13.712Z,14.37
2023-05-24T04:58:13.959Z,14.38
2023-05-24T04:59:13.671Z,14.38
2023-05-24T05:00:13.668Z,14.37
2023-05-24T05:01:14.681Z,14.38
2023-05-24T05:02:13.794Z,14.38
2023-05-24T05:03:13.721Z,14.38
2023-05-24T05:04:13.679Z,14.39
2023-05-24T05:05:13.625Z,14.40
2023-05-24T05:06:14.505Z,14.40
2023-05-24T05:07:13.582Z,14.41
2023-05-24T05:08:13.613Z,14.42
2023-05-24T05:09:13.553Z,14.44
2023-05-24T05:10:13.605Z,14.46
2023-05-24T05:11:14.473Z,14.49
2023-05-24T05:12:13.520Z,14.53
2023-05-24T05:13:13.503Z,14.56
2023-05-24T05:14:13.489Z,14.60
2023-05-24T05:15:13.461Z,14.65
2023-05-24T05:16:14.391Z,14.69
2023-05-24T05:17:13.497Z,14.72
2023-05-24T05:18:13.505Z,14.75
2023-05-24T05:19:13.480Z,14.76
2023-05-24T05:20:13.506Z,14.77
2023-05-24T05:21:14.417Z,14.77
2023-05-24T05:22:13.401Z,14.77
2023-05-24T05:23:13.354Z,14.76
2023-05-24T05:24:13.386Z,14.75
2023-05-24T05:25:13.338Z,14.75
2023-05-24T05:26:14.240Z,14.74
2023-05-24T05:27:14.237Z,14.74
2023-05-24T05:28:13.378Z,14.73
2023-05-24T05:29:13.272Z,14.73
2023-05-24T05:30:13.346Z,14.72
2023-05-24T05:31:13.266Z,14.71
2023-05-24T05:32:14.377Z,14.70
2023-05-24T05:33:13.275Z,14.70
2023-05-24T05:34:13.206Z,14.70
2023-05-24T05:35:13.215Z,14.70
2023-05-24T05:36:13.193Z,14.71
2023-05-24T05:37:13.211Z,14.71
2023-05-24T05:38:14.124Z,14.71
2023-05-24T05:39:13.136Z,14.72
2023-05-24T05:40:13.122Z,14.74
2023-05-24T05:41:13.146Z,14.76
2023-05-24T05:42:13.124Z,14.80
2023-05-24T05:43:14.057Z,14.85
2023-05-24T05:44:13.158Z,14.89
2023-05-24T05:45:13.055Z,14.93
2023-05-24T05:46:13.184Z,14.96
2023-05-24T05:47:13.065Z,14.99
2023-05-24T05:48:13.991Z,15.01
2023-05-24T05:49:13.007Z,15.01
2023-05-24T05:50:13.043Z,15.00
2023-05-24T05:51:13.026Z,14.98
2023-05-24T05:52:13.046Z,14.95
2023-05-24T05:53:13.923Z,14.93
2023-05-24T05:54:12.951Z,14.92
2023-05-24T05:55:12.919Z,14.91
2023-05-24T05:56:12.956Z,14.91
2023-05-24T05:57:13.034Z,14.91
2023-05-24T05:58:13.863Z,14.91
2023-05-24T05:59:12.889Z,14.92
2023-05-24T06:00:12.858Z,14.94
2023-05-24T06:01:12.887Z,14.98
2023-05-24T06:02:13.052Z,15.02
2023-05-24T06:03:12.929Z,15.06
2023-05-24T06:04:13.865Z,15.11
2023-05-24T06:05:15.289Z,15.16
2023-05-24T06:06:12.811Z,15.22
2023-05-24T06:07:12.783Z,15.27
2023-05-24T06:08:12.785Z,15.32
2023-05-24T06:09:13.675Z,15.37
2023-05-24T06:10:12.746Z,15.43
2023-05-24T06:11:12.752Z,15.50
2023-05-24T06:12:13.704Z,15.57
2023-05-24T06:13:12.730Z,15.64
2023-05-24T06:14:13.648Z,15.70
2023-05-24T06:15:12.719Z,15.77
2023-05-24T06:16:12.684Z,15.82
2023-05-24T06:17:12.697Z,15.86
2023-05-24T06:18:12.639Z,15.89
2023-05-24T06:19:12.647Z,15.91
2023-05-24T06:20:13.563Z,15.91
2023-05-24T06:21:12.622Z,15.90
2023-05-24T06:22:12.672Z,15.87
2023-05-24T06:23:12.634Z,15.84
2023-05-24T06:24:12.589Z,15.82
2023-05-24T06:25:13.466Z,15.80
2023-05-24T06:26:12.618Z,15.79
2023-05-24T06:27:12.554Z,15.80
2023-05-24T06:28:12.520Z,15.83
2023-05-24T06:29:12.472Z,15.87
2023-05-24T06:30:13.534Z,15.92
2023-05-24T06:31:12.557Z,15.98
2023-05-24T06:32:12.487Z,16.04
2023-05-24T06:33:12.474Z,16.10
2023-05-24T06:34:12.431Z,16.15
2023-05-24T06:35:12.419Z,16.20
2023-05-24T06:36:13.314Z,16.24
2023-05-24T06:37:12.413Z,16.26
2023-05-24T06:38:12.393Z,16.27
2023-05-24T06:39:12.375Z,16.25
2023-05-24T06:40:12.340Z,16.23
2023-05-24T06:41:13.306Z,16.21
2023-05-24T06:42:12.354Z,16.19
2023-05-24T06:43:12.300Z,16.18
2023-05-24T06:44:12.318Z,16.18
2023-05-24T06:45:12.279Z,16.20
2023-05-24T06:46:12.287Z,16.22
2023-05-24T06:47:13.262Z,16.26
2023-05-24T06:48:12.357Z,16.30
2023-05-24T06:49:12.277Z,16.34
2023-05-24T06:50:12.215Z,16.38
2023-05-24T06:51:12.255Z,16.41
2023-05-24T06:52:13.284Z,16.45
2023-05-24T06:53:12.231Z,16.47
2023-05-24T06:54:12.248Z,16.48
2023-05-24T06:55:12.184Z,16.50
2023-05-24T06:56:12.156Z,16.51
2023-05-24T06:57:13.127Z,16.52
2023-05-24T06:58:12.109Z,16.54
2023-05-24T06:59:12.092Z,16.55
2023-05-24T07:00:12.200Z,16.56
2023-05-24T07:01:12.134Z,16.56
2023-05-24T07:02:12.132Z,16.55
2023-05-24T07:03:12.977Z,16.54
2023-05-24T07:04:12.121Z,16.54
2023-05-24T07:05:12.061Z,16.54
2023-05-24T07:06:12.069Z,16.55
2023-05-24T07:07:12.003Z,16.57
2023-05-24T07:08:12.029Z,16.60
2023-05-24T07:09:12.972Z,16.63
2023-05-24T07:10:11.994Z,16.66
2023-05-24T07:11:12.088Z,16.69
2023-05-24T07:12:11.952Z,16.72
2023-05-24T07:13:11.981Z,16.75
2023-05-24T07:14:12.859Z,16.79
2023-05-24T07:15:11.937Z,16.82
2023-05-24T07:16:11.925Z,16.84
2023-05-24T07:17:11.903Z,16.86
2023-05-24T07:18:11.894Z,16.86
2023-05-24T07:19:11.925Z,16.85
2023-05-24T07:20:12.870Z,16.83
2023-05-24T07:21:11.937Z,16.81
2023-05-24T07:22:11.825Z,16.79
2023-05-24T07:23:11.862Z,16.77
2023-05-24T07:24:13.093Z,16.76
2023-05-24T07:25:11.792Z,16.76
2023-05-24T07:26:12.755Z,16.75
2023-05-24T07:27:11.754Z,16.73
2023-05-24T07:28:11.774Z,16.72
2023-05-24T07:29:11.731Z,16.70
2023-05-24T07:30:23.617Z,16.70
2023-05-24T07:31:14.195Z,16.70
2023-05-24T07:32:11.782Z,16.72
2023-05-24T07:33:11.780Z,16.75
2023-05-24T07:34:11.697Z,16.79
2023-05-24T07:35:11.632Z,16.85
2023-05-24T07:36:11.613Z,16.92
2023-05-24T07:37:12.547Z,16.99
2023-05-24T07:38:11.640Z,17.06
2023-05-24T07:39:11.615Z,17.13
2023-05-24T07:40:11.795Z,17.18
2023-05-24T07:41:11.597Z,17.23
2023-05-24T07:42:11.595Z,17.27
2023-05-24T07:43:12.534Z,17.32
2023-05-24T07:44:11.584Z,17.36
2023-05-24T07:45:11.605Z,17.39
2023-05-24T07:46:11.570Z,17.42
2023-05-24T07:47:11.491Z,17.45
2023-05-24T07:48:11.615Z,17.48
2023-05-24T07:49:12.404Z,17.50
2023-05-24T07:50:11.475Z,17.52
2023-05-24T07:51:11.474Z,17.54
2023-05-24T07:52:11.443Z,17.55
2023-05-24T07:53:11.486Z,17.55
2023-05-24T07:54:11.400Z,17.55
2023-05-24T07:55:12.338Z,17.55
2023-05-24T07:56:11.451Z,17.56
2023-05-24T07:57:11.371Z,17.57
2023-05-24T07:58:11.394Z,17.59
2023-05-24T07:59:11.410Z,17.62
2023-05-24T08:00:11.341Z,17.65
2023-05-24T08:01:12.258Z,17.67
2023-05-24T08:02:11.325Z,17.68
2023-05-24T08:03:11.317Z,17.68
2023-05-24T08:04:11.331Z,17.67
2023-05-24T08:05:11.377Z,17.66
2023-05-24T08:06:11.274Z,17.65
2023-05-24T08:07:12.188Z,17.63
2023-05-24T08:08:11.262Z,17.62
2023-05-24T08:09:11.461Z,17.60
2023-05-24T08:10:11.249Z,17.57
2023-05-24T08:11:11.225Z,17.53
2023-05-24T08:12:11.208Z,17.48
2023-05-24T08:13:12.116Z,17.43
2023-05-24T08:14:11.170Z,17.38
2023-05-24T08:15:11.186Z,17.35
2023-05-24T08:16:11.237Z,17.33
2023-05-24T08:17:11.202Z,17.31
2023-05-24T08:18:12.082Z,17.31
2023-05-24T08:19:11.116Z,17.30
2023-05-24T08:20:11.180Z,17.30
2023-05-24T08:21:11.047Z,17.30
2023-05-24T08:22:11.150Z,17.31
2023-05-24T08:23:12.010Z,17.34
2023-05-24T08:24:11.040Z,17.39
2023-05-24T08:25:11.100Z,17.44
2023-05-24T08:26:11.016Z,17.50
2023-05-24T08:27:10.998Z,17.57
2023-05-24T08:28:11.985Z,17.63
2023-05-24T08:29:10.982Z,17.69
2023-05-24T08:30:11.069Z,17.76
2023-05-24T08:31:10.976Z,17.82
2023-05-24T08:32:11.013Z,17.89
2023-05-24T08:33:11.001Z,17.96
2023-05-24T08:34:11.895Z,18.02
2023-05-24T08:35:19.370Z,18.08
2023-05-24T08:36:12.406Z,18.12
2023-05-24T08:37:10.866Z,18.14
2023-05-24T08:38:10.856Z,18.15
2023-05-24T08:39:11.891Z,18.16
2023-05-24T08:40:10.914Z,18.18
2023-05-24T08:41:10.808Z,18.21
2023-05-24T08:42:10.891Z,18.23
2023-05-24T08:43:10.825Z,18.24
2023-05-24T08:44:11.751Z,18.24
2023-05-24T08:45:10.776Z,18.23
2023-05-24T08:46:10.993Z,18.23
2023-05-24T08:47:10.819Z,18.23
2023-05-24T08:48:10.910Z,18.22
2023-05-24T14:18:37.452Z,50.96
2023-05-24T14:19:37.417Z,50.56
2023-05-24T14:20:37.750Z,49.60
2023-05-24T14:21:37.454Z,47.80
2023-05-24T14:22:37.390Z,46.52
2023-05-24T14:23:38.326Z,46.22
2023-05-24T14:24:37.623Z,46.30
2023-05-24T14:25:37.337Z,46.47
2023-05-24T14:26:37.555Z,46.58
2023-05-24T14:27:37.372Z,46.51
2023-05-24T14:28:38.260Z,46.09
2023-05-24T14:29:37.310Z,45.17
2023-05-24T14:30:37.299Z,43.85
2023-05-24T14:31:37.366Z,42.76
2023-05-24T14:32:37.263Z,42.14
2023-05-24T14:33:37.287Z,41.81
2023-05-24T14:34:38.197Z,41.66
2023-05-24T14:35:37.344Z,41.58
2023-05-24T14:36:37.272Z,41.57
2023-05-24T14:37:37.240Z,41.61
2023-05-24T14:38:37.211Z,41.67
2023-05-24T14:39:38.108Z,41.77
2023-05-24T14:40:37.303Z,41.92
2023-05-24T14:41:37.282Z,42.11
2023-05-24T14:42:37.142Z,42.32
2023-05-24T14:43:37.149Z,42.60
2023-05-24T14:44:37.129Z,42.97
2023-05-24T14:45:38.085Z,43.41
2023-05-24T14:46:37.193Z,43.89
2023-05-24T14:47:37.137Z,44.39
2023-05-24T14:48:37.080Z,44.93
2023-05-24T14:49:37.065Z,45.53
2023-05-24T14:50:38.050Z,46.24
2023-05-24T14:51:37.106Z,47.03
2023-05-24T14:52:37.063Z,47.82
2023-05-24T14:53:37.030Z,48.53
2023-05-24T14:54:36.988Z,49.16
2023-05-24T14:55:37.948Z,49.69
2023-05-24T14:56:37.008Z,50.11
2023-05-24T14:57:37.001Z,50.41
2023-05-24T14:58:36.947Z,50.68
2023-05-24T14:59:36.956Z,50.97
2023-05-24T15:00:37.919Z,51.29
2023-05-24T15:01:37.016Z,51.60
2023-05-24T15:02:37.029Z,51.90
2023-05-24T15:03:37.039Z,52.18
2023-05-24T15:04:36.920Z,52.17
2023-05-24T15:05:37.137Z,51.70
2023-05-24T15:06:37.813Z,51.26
2023-05-24T15:07:36.873Z,51.14
2023-05-24T15:08:36.842Z,51.21
2023-05-24T15:09:36.832Z,51.21
2023-05-24T15:10:36.885Z,51.09
2023-05-24T15:11:37.750Z,51.07
2023-05-24T15:12:36.849Z,51.15
2023-05-24T15:13:36.798Z,51.32
2023-05-24T15:14:36.792Z,51.51
2023-05-24T15:15:36.801Z,51.64
2023-05-24T15:16:37.746Z,51.72
2023-05-24T15:17:36.792Z,51.75
2023-05-24T15:18:36.735Z,51.70
2023-05-24T15:19:36.753Z,51.57
2023-05-24T15:20:36.871Z,51.41
2023-05-24T15:21:36.698Z,51.27
2023-05-24T15:22:37.673Z,51.21
2023-05-24T15:23:36.709Z,51.23
2023-05-24T15:24:36.677Z,51.31
2023-05-24T15:25:36.696Z,51.41
2023-05-24T15:26:36.667Z,51.47
2023-05-24T15:27:37.581Z,51.48
2023-05-24T15:28:36.640Z,51.49
2023-05-24T15:29:36.637Z,51.53
2023-05-24T15:30:36.643Z,51.60
2023-05-24T15:31:36.669Z,51.66
2023-05-24T15:32:37.632Z,51.70
2023-05-24T15:33:36.561Z,51.70
2023-05-24T15:34:36.582Z,51.74
2023-05-24T15:35:36.552Z,51.87
2023-05-24T15:36:36.578Z,52.03
2023-05-24T15:37:36.538Z,52.14
2023-05-24T15:38:37.473Z,52.08
2023-05-24T15:39:36.504Z,51.59
2023-05-24T15:40:36.477Z,50.25
2023-05-24T15:41:36.552Z,48.40
2023-05-24T15:42:36.455Z,46.82
2023-05-24T15:43:36.486Z,45.93
2023-05-24T15:44:37.423Z,45.28
2023-05-24T15:45:36.504Z,44.64
2023-05-24T15:46:36.557Z,44.54
2023-05-24T15:47:36.632Z,44.93
2023-05-24T15:48:36.479Z,45.52
2023-05-24T15:49:36.416Z,46.14
2023-05-24T15:52:36.510Z,47.63
2023-05-24T15:53:36.392Z,47.91
2023-05-24T15:54:36.408Z,48.09
2023-05-24T15:55:38.006Z,48.18
2023-05-24T15:56:36.346Z,48.23
2023-05-24T15:57:36.375Z,48.24
2023-05-24T15:58:36.405Z,48.25
2023-05-24T15:59:36.346Z,48.24
2023-05-24T16:00:37.244Z,48.21
2023-05-24T16:01:36.287Z,48.15
2023-05-24T16:02:36.281Z,48.08
2023-05-24T16:03:36.326Z,48.03
2023-05-24T16:04:36.253Z,47.96
2023-05-24T16:05:36.188Z,47.87
2023-05-24T16:06:37.212Z,47.75
2023-05-24T16:07:36.240Z,47.62
2023-05-24T16:08:36.205Z,47.47
2023-05-24T16:09:36.167Z,47.31
2023-05-24T16:10:36.225Z,47.16
2023-05-24T16:11:37.817Z,46.99
2023-05-24T16:12:36.573Z,46.79
2023-05-24T16:13:36.145Z,46.52
2023-05-24T16:14:36.134Z,46.21
2023-05-24T16:15:36.125Z,45.87
2023-05-24T16:16:37.105Z,45.50
2023-05-24T16:17:36.095Z,45.15
2023-05-24T16:18:36.117Z,44.82
2023-05-24T16:19:36.120Z,44.48
2023-05-24T16:20:36.162Z,44.12
2023-05-24T16:21:36.038Z,43.68
2023-05-24T16:22:37.006Z,43.03
2023-05-24T16:23:36.210Z,42.09
2023-05-24T16:24:36.093Z,40.93
2023-05-24T16:25:36.002Z,39.66
2023-05-24T16:26:35.974Z,38.36
2023-05-24T16:27:36.007Z,37.12
2023-05-24T16:28:36.897Z,35.97
2023-05-24T16:29:37.077Z,34.93
2023-05-24T16:30:35.941Z,34.01
2023-05-24T16:31:35.975Z,33.18
2023-05-24T16:32:36.115Z,32.42
2023-05-24T16:33:35.899Z,31.74
2023-05-24T16:34:52.044Z,31.10
2023-05-24T16:35:37.401Z,30.54
2023-05-24T16:36:35.836Z,30.05
2023-05-24T16:37:35.881Z,29.63
2023-05-24T16:38:35.822Z,29.23
2023-05-24T16:39:35.976Z,28.84
2023-05-24T16:40:36.740Z,28.43
2023-05-24T16:41:35.804Z,28.00
2023-05-24T16:42:35.797Z,27.58
2023-05-24T16:43:35.778Z,27.18
2023-05-24T16:44:35.721Z,26.81
2023-05-24T16:45:36.682Z,26.47
2023-05-24T16:46:35.764Z,26.15
2023-05-24T16:47:35.877Z,25.86
2023-05-24T16:48:35.789Z,25.59
2023-05-24T16:49:35.678Z,25.33
2023-05-24T16:50:35.666Z,25.09
2023-05-24T16:51:36.590Z,24.85
2023-05-24T16:52:35.674Z,24.62
2023-05-24T16:53:35.645Z,24.41
2023-05-24T16:54:35.652Z,24.23
2023-05-24T16:55:35.597Z,24.07
2023-05-24T16:56:36.544Z,23.92
2023-05-24T16:57:35.627Z,23.77
2023-05-24T16:58:35.576Z,23.62
2023-05-24T16:59:35.560Z,23.47
2023-05-24T17:00:35.522Z,23.32
2023-05-24T17:01:36.476Z,23.16
2023-05-24T17:02:35.594Z,23.00
2023-05-24T17:03:35.715Z,22.84
2023-05-24T17:04:35.501Z,22.68
2023-05-24T17:05:35.492Z,22.52
2023-05-24T17:06:35.508Z,22.36
2023-05-24T17:07:36.402Z,22.21
2023-05-24T17:08:35.478Z,22.06
2023-05-24T17:09:35.483Z,21.93
2023-05-24T17:10:35.399Z,21.81
2023-05-24T17:11:35.440Z,21.72
2023-05-24T17:12:36.337Z,21.63
2023-05-24T17:13:35.418Z,21.55
2023-05-24T17:14:35.384Z,21.48
2023-05-24T17:15:35.426Z,21.42
2023-05-24T17:16:35.455Z,21.36
2023-05-24T17:17:35.405Z,21.30
2023-05-24T17:18:36.280Z,21.26
2023-05-24T17:19:35.279Z,21.22
2023-05-24T17:20:35.425Z,21.18
2023-05-24T17:21:35.291Z,21.13
2023-05-24T17:22:35.270Z,21.07
2023-05-24T17:23:35.253Z,21.01
2023-05-24T17:24:36.216Z,20.94
2023-05-24T17:25:35.231Z,20.87
2023-05-24T17:26:35.248Z,20.81
2023-05-24T17:27:35.312Z,20.74
2023-05-24T17:28:35.255Z,20.69
2023-05-24T17:29:35.220Z,20.63
2023-05-24T17:30:36.099Z,20.59
2023-05-24T17:31:35.282Z,20.55
2023-05-24T17:32:35.226Z,20.52
2023-05-24T17:33:35.196Z,20.48
2023-05-24T17:34:35.124Z,20.45
2023-05-24T17:35:36.098Z,20.41
2023-05-24T17:36:35.176Z,20.38
2023-05-24T17:37:35.069Z,20.34
2023-05-24T17:38:35.111Z,20.31
2023-05-24T17:39:35.163Z,20.28
2023-05-24T17:40:35.072Z,20.24
2023-05-24T17:41:36.068Z,20.21
2023-05-24T17:42:35.028Z,20.18
2023-05-24T17:43:35.043Z,20.15
2023-05-24T17:44:34.994Z,20.12
2023-05-24T17:45:34.999Z,20.09
2023-05-24T17:46:37.330Z,20.04
2023-05-24T17:47:34.955Z,19.99
2023-05-24T17:48:35.033Z,19.94
2023-05-24T17:49:34.972Z,19.89
2023-05-24T17:50:34.939Z,19.85
2023-05-24T17:51:34.920Z,19.80
2023-05-24T17:52:35.856Z,19.76
2023-05-24T17:53:34.918Z,19.73
2023-05-24T17:54:34.873Z,19.71
2023-05-24T17:55:34.861Z,19.70
2023-05-24T17:56:34.837Z,19.68
2023-05-24T17:57:35.841Z,19.67
2023-05-24T17:58:34.827Z,19.65
2023-05-24T17:59:34.930Z,19.63
2023-05-24T18:00:34.756Z,19.62
2023-05-24T18:01:34.841Z,19.60
2023-05-24T18:02:34.793Z,19.58
2023-05-24T18:03:35.767Z,19.56
2023-05-24T18:04:34.770Z,19.54
2023-05-24T18:05:34.749Z,19.52
2023-05-24T18:06:34.765Z,19.49
2023-05-24T18:07:34.746Z,19.46
2023-05-24T18:08:34.665Z,19.42
2023-05-24T18:09:35.639Z,19.38
2023-05-24T18:10:34.655Z,19.35
2023-05-24T18:11:34.631Z,19.31
2023-05-24T18:12:34.623Z,19.26
2023-05-24T18:13:34.682Z,19.22
2023-05-24T18:14:34.666Z,19.18
2023-05-24T18:15:35.593Z,19.14
2023-05-24T18:16:34.608Z,19.10
2023-05-24T18:17:34.663Z,19.07
2023-05-24T18:18:34.595Z,19.04
2023-05-24T18:19:34.562Z,19.02
2023-05-24T18:20:35.563Z,19.00
2023-05-24T18:21:34.526Z,18.99
2023-05-24T18:22:34.514Z,18.98
2023-05-24T18:23:34.493Z,18.97
2023-05-24T18:24:34.544Z,18.97